Time;durP1;ratioP1;P1;durP2;ratioP2;P2;SDS_P1;SDS_P2;PMS_P1;PMS_P2;Temp;Humidity;BMP_temperature;BMP_pressure;BME280_temperature;BME280_humidity;BME280_pressure;Samples;Min_cycle;Max_cycle;Signal;HPM_P1;HPM_P2
2021/03/21 00:00:54;;;;;;;;;71.00;57.67;;;;;2.17;78.76;101414.38;4881513;29;8887;-71
2021/03/21 00:03:51;;;;;;;;;65.33;51.00;;;;;2.16;79.36;101411.91;4880378;29;8868;-70
2021/03/21 00:06:47;;;;;;;;;78.00;63.00;;;;;2.15;79.59;101408.34;4880064;29;8890;-71
2021/03/21 00:09:42;;;;;;;;;89.33;66.00;;;;;2.12;79.00;101402.56;4882065;29;8972;-70
2021/03/21 00:12:10;;;;;;;;;78.67;65.00;;;;;1.99;79.74;101400.22;4880674;29;8958;-71
2021/03/21 00:15:06;;;;;;;;;84.33;66.67;;;;;2.29;79.47;101397.00;4880231;29;8993;-71
2021/03/21 00:18:03;;;;;;;;;79.67;63.33;;;;;2.20;79.69;101391.19;4879759;29;8863;-71
2021/03/21 00:20:59;;;;;;;;;73.33;59.33;;;;;2.35;79.26;101395.97;4862845;29;8870;-72
2021/03/21 00:23:54;;;;;;;;;76.33;61.67;;;;;2.36;79.18;101390.25;4864424;29;8890;-71
2021/03/21 00:26:50;;;;;;;;;76.67;63.00;;;;;2.33;79.25;101385.31;4861005;29;8874;-71
2021/03/21 00:29:45;;;;;;;;;80.33;59.33;;;;;2.31;79.28;101384.75;4861745;29;8929;-71
2021/03/21 00:32:41;;;;;;;;;71.33;59.33;;;;;2.36;79.44;101378.50;4862070;29;8870;-71
2021/03/21 00:35:38;;;;;;;;;72.33;60.33;;;;;2.32;79.07;101380.94;4872070;29;8856;-71
2021/03/21 00:38:36;;;;;;;;;71.00;60.00;;;;;2.33;79.22;101373.56;4879974;29;8970;-71
2021/03/21 00:41:32;;;;;;;;;73.00;56.00;;;;;2.38;78.61;101374.44;4876911;29;8941;-71
2021/03/21 00:44:27;;;;;;;;;77.33;63.00;;;;;2.29;78.38;101375.97;4879158;29;8932;-71
2021/03/21 00:47:24;;;;;;;;;76.33;61.00;;;;;2.33;78.26;101366.19;4879743;29;8888;-70
2021/03/21 00:50:32;;;;;;;;;84.33;63.00;;;;;2.31;78.43;101368.38;4879915;29;8987;-71
2021/03/21 00:53:28;;;;;;;;;73.00;60.33;;;;;2.39;78.46;101365.19;4879580;29;9599;-71
2021/03/21 00:56:33;;;;;;;;;78.00;60.00;;;;;2.41;78.50;101370.38;4879950;29;8908;-70
2021/03/21 00:59:28;;;;;;;;;82.00;62.33;;;;;2.41;78.53;101373.91;4879714;29;8929;-70
2021/03/21 01:02:24;;;;;;;;;80.00;63.33;;;;;2.22;79.50;101367.19;4879028;29;8986;-70
2021/03/21 01:05:28;;;;;;;;;74.67;59.33;;;;;2.32;79.25;101380.13;4879379;29;8923;-70
2021/03/21 01:08:27;;;;;;;;;89.00;70.67;;;;;2.38;80.12;101376.34;4879344;29;8906;-70
2021/03/21 01:11:29;;;;;;;;;72.00;54.00;;;;;2.48;79.85;101379.16;4878810;29;8876;-71
2021/03/21 01:13:58;;;;;;;;;80.33;64.67;;;;;2.48;79.92;101371.81;4863090;29;8941;-69
2021/03/21 01:16:54;;;;;;;;;66.33;57.67;;;;;2.57;79.61;101368.59;4860045;29;8898;-70
2021/03/21 01:19:50;;;;;;;;;83.00;64.33;;;;;2.47;79.85;101372.06;4869775;29;8859;-70
2021/03/21 01:22:46;;;;;;;;;69.67;54.33;;;;;2.29;80.50;101380.63;4878641;29;8872;-69
2021/03/21 01:25:43;;;;;;;;;83.33;66.33;;;;;2.51;80.17;101384.91;4879375;29;8859;-70
2021/03/21 01:28:19;;;;;;;;;85.33;65.67;;;;;2.58;79.86;101376.50;4879968;29;8891;-70
2021/03/21 01:31:18;;;;;;;;;74.67;60.33;;;;;2.47;80.19;101377.53;4879081;29;8998;-70
2021/03/21 01:34:14;;;;;;;;;73.33;57.33;;;;;2.51;80.33;101373.19;4878325;29;9661;-70
2021/03/21 01:36:42;;;;;;;;;72.00;57.33;;;;;2.47;80.13;101370.16;4880401;29;8888;-70
2021/03/21 01:39:37;;;;;;;;;70.67;57.33;;;;;2.51;80.22;101367.72;4879870;29;8898;-69
2021/03/21 01:42:40;;;;;;;;;73.67;59.33;;;;;2.59;80.02;101378.16;4853850;29;8890;-70
2021/03/21 01:45:44;;;;;;;;;77.33;62.33;;;;;2.57;79.18;101374.06;4861231;29;9614;-69
2021/03/21 01:48:15;;;;;;;;;74.33;60.33;;;;;2.62;79.90;101377.66;4861170;29;8897;-70
2021/03/21 01:51:15;;;;;;;;;70.67;58.00;;;;;2.60;79.26;101384.44;4861146;29;8905;-70
2021/03/21 01:54:15;;;;;;;;;65.33;55.00;;;;;2.46;79.20;101375.88;4854802;29;8905;-70
2021/03/21 01:57:11;;;;;;;;;68.33;54.00;;;;;2.51;79.45;101374.00;4879015;29;8867;-71
2021/03/21 02:00:09;;;;;;;;;74.67;59.33;;;;;2.50;78.30;101366.91;4878038;29;8867;-70
2021/03/21 02:03:05;;;;;;;;;60.33;52.00;;;;;2.32;78.79;101377.38;4878849;29;9638;-71
2021/03/21 02:06:24;;;;;;;;;53.67;48.67;;;;;2.28;78.66;101374.34;4877845;29;8881;-71
2021/03/21 02:09:49;;;;;;;;;61.00;51.67;;;;;2.28;78.43;101374.34;4866509;29;8880;-71
2021/03/21 02:13:07;;;;;;;;;76.33;57.67;;;;;2.33;78.70;101371.66;4865456;29;8870;-71
2021/03/21 02:16:02;;;;;;;;;69.00;54.67;;;;;2.27;78.56;101371.88;4859764;29;8961;-72
2021/03/21 02:19:26;;;;;;;;;65.67;54.67;;;;;2.38;78.25;101371.72;4867419;29;8909;-71
2021/03/21 02:22:33;;;;;;;;;66.33;51.33;;;;;2.36;78.44;101382.06;4878217;29;8963;-71
2021/03/21 02:26:06;;;;;;;;;62.67;53.00;;;;;2.21;78.17;101381.91;4878172;29;8906;-71
2021/03/21 02:29:21;;;;;;;;;68.33;56.33;;;;;2.21;78.97;101388.19;4878012;29;8947;-71
2021/03/21 02:32:29;;;;;;;;;66.33;55.00;;;;;2.08;79.02;101385.91;4878478;29;8896;-71
2021/03/21 02:35:39;;;;;;;;;68.67;55.67;;;;;2.16;79.65;101390.88;4865358;29;8902;-71
2021/03/21 02:38:42;;;;;;;;;61.67;51.67;;;;;2.33;79.68;101390.78;4878370;29;8879;-72
2021/03/21 02:41:45;;;;;;;;;62.33;52.00;;;;;2.36;79.86;101395.69;4878317;29;9503;-72
2021/03/21 02:44:48;;;;;;;;;63.00;54.33;;;;;2.40;80.09;101390.56;4877910;29;8868;-71
2021/03/21 02:47:45;;;;;;;;;71.67;55.33;;;;;2.40;80.41;101396.84;4877770;29;8955;-71
2021/03/21 02:50:26;;;;;;;;;76.00;59.33;;;;;2.49;79.60;101395.28;4878825;29;9002;-71
2021/03/21 02:53:28;;;;;;;;;70.33;55.33;;;;;2.48;79.35;101407.28;4877890;29;8884;-72
2021/03/21 02:56:30;;;;;;;;;67.33;55.67;;;;;2.45;80.08;101396.91;4876986;29;8921;-72
2021/03/21 02:59:31;;;;;;;;;67.33;54.33;;;;;2.43;79.86;101401.78;4877045;29;8862;-71
2021/03/21 03:02:09;;;;;;;;;67.67;54.67;;;;;2.38;79.45;101398.19;4878558;29;8874;-71
2021/03/21 03:05:12;;;;;;;;;71.00;53.00;;;;;2.39;80.25;101405.31;4901044;29;8881;-71
2021/03/21 03:08:17;;;;;;;;;60.00;51.00;;;;;2.51;80.01;101406.75;4878368;29;9073;-71
2021/03/21 03:11:41;;;;;;;;;73.33;58.67;;;;;2.45;79.72;101398.78;4874764;29;8981;-70
2021/03/21 03:14:39;;;;;;;;;65.67;53.33;;;;;2.42;80.24;101391.13;4862617;29;8884;-72
2021/03/21 03:17:40;;;;;;;;;45.33;43.67;;;;;2.43;80.23;101388.13;4863399;29;9777;-72
2021/03/21 03:20:42;;;;;;;;;59.33;52.33;;;;;2.43;80.94;101393.59;4862170;29;8866;-72
2021/03/21 03:23:48;;;;;;;;;60.33;53.00;;;;;2.50;80.63;101399.66;4863388;29;8886;-72
2021/03/21 03:26:58;;;;;;;;;67.67;53.33;;;;;2.51;81.12;101401.31;4863567;29;8962;-71
2021/03/21 03:30:20;;;;;;;;;56.67;48.67;;;;;2.60;80.56;101398.91;4862046;29;8910;-71
2021/03/21 03:33:17;;;;;;;;;72.67;56.00;;;;;2.66;80.68;101400.63;4861990;29;8858;-71
2021/03/21 03:36:15;;;;;;;;;62.00;49.00;;;;;2.78;80.32;101405.91;4867760;29;8992;-70
2021/03/21 03:39:11;;;;;;;;;63.67;49.67;;;;;2.87;79.71;101401.59;4873616;29;8975;-71
2021/03/21 03:42:43;;;;;;;;;60.00;50.33;;;;;2.84;79.59;101406.75;4860638;29;9003;-71
2021/03/21 03:45:55;;;;;;;;;62.67;51.33;;;;;2.94;79.73;101415.03;4883357;29;8875;-70
2021/03/21 03:49:03;;;;;;;;;54.67;49.33;;;;;2.96;79.96;101418.31;4868229;29;8982;-71
2021/03/21 03:52:07;;;;;;;;;57.67;50.00;;;;;2.89;80.44;101413.09;4881557;29;8875;-71
2021/03/21 03:55:18;;;;;;;;;78.00;63.00;;;;;2.76;80.44;101410.78;4885548;29;8882;-72
2021/03/21 03:58:42;;;;;;;;;37.33;35.00;;;;;2.95;80.08;101416.69;4869897;29;8947;-71
2021/03/21 04:01:56;;;;;;;;;53.33;47.00;;;;;2.84;80.73;101414.94;4857895;29;8882;-71
2021/03/21 04:05:07;;;;;;;;;65.33;51.67;;;;;2.94;80.02;101417.78;4874356;29;8883;-71
2021/03/21 04:08:26;;;;;;;;;52.67;47.00;;;;;3.01;80.41;101421.94;4869378;29;8976;-72
2021/03/21 04:12:07;;;;;;;;;64.67;53.00;;;;;3.10;80.16;101418.69;4877092;29;8863;-71
2021/03/21 04:15:08;;;;;;;;;64.33;51.33;;;;;3.05;79.84;101428.50;4813036;29;8863;-72
2021/03/21 04:17:45;;;;;;;;;62.00;53.33;;;;;2.97;79.92;101431.72;4815452;29;9071;-71
2021/03/21 04:20:29;;;;;;;;;64.00;47.00;;;;;2.95;80.17;101436.63;4852393;29;9824;-71
2021/03/21 04:23:15;;;;;;;;;58.33;48.67;;;;;2.98;80.59;101427.06;4862705;29;9646;-70
2021/03/21 04:25:48;;;;;;;;;59.33;43.67;;;;;3.05;80.27;101435.88;4872824;29;9622;-71
2021/03/21 04:28:22;;;;;;;;;49.00;43.33;;;;;3.06;80.33;101430.13;4874490;29;8899;-70
2021/03/21 04:31:03;;;;;;;;;50.33;45.00;;;;;3.09;80.63;101419.78;4862214;29;8878;-71
2021/03/21 04:33:37;;;;;;;;;52.00;43.33;;;;;3.14;80.33;101420.63;4853294;29;8998;-71
2021/03/21 04:36:40;;;;;;;;;49.33;44.00;;;;;3.21;80.16;101420.41;4876732;29;8898;-71
2021/03/21 04:39:27;;;;;;;;;39.67;38.00;;;;;3.22;79.85;101427.50;4871354;29;8874;-70
2021/03/21 04:42:04;;;;;;;;;44.00;40.67;;;;;3.11;80.36;101425.81;4869971;29;11737;-70
2021/03/21 04:44:40;;;;;;;;;48.00;44.00;;;;;3.21;79.61;101432.16;4869359;29;11752;-70
2021/03/21 04:48:02;;;;;;;;;53.33;47.33;;;;;3.24;80.45;101441.75;4864228;29;8886;-71
2021/03/21 04:50:32;;;;;;;;;47.00;44.33;;;;;3.17;80.14;101444.72;4860894;29;8860;-71
2021/03/21 04:53:39;;;;;;;;;50.67;45.00;;;;;3.23;80.35;101453.78;4866428;29;9664;-72
2021/03/21 04:56:32;;;;;;;;;49.67;45.67;;;;;3.20;81.07;101444.19;4851672;29;8908;-72
2021/03/21 04:59:19;;;;;;;;;44.67;42.33;;;;;3.27;81.12;101443.97;4879388;29;8921;-71
2021/03/21 05:02:11;;;;;;;;;46.67;43.33;;;;;3.11;81.25;101447.69;4877154;29;11754;-71
2021/03/21 05:05:20;;;;;;;;;35.33;35.33;;;;;3.30;81.24;101446.19;4875682;29;11701;-71
2021/03/21 05:08:25;;;;;;;;;31.67;31.67;;;;;3.41;80.88;101441.59;4878938;29;11761;-71
2021/03/21 05:11:37;;;;;;;;;40.00;40.00;;;;;3.47;80.76;101446.81;4878656;29;11710;-71
2021/03/21 05:14:46;;;;;;;;;43.00;42.00;;;;;3.63;80.15;101443.06;4878386;29;11738;-71
2021/03/21 05:18:21;;;;;;;;;46.50;43.75;;;;;3.65;80.14;101450.19;4877700;29;11717;-70
2021/03/21 05:21:25;;;;;;;;;38.25;38.25;;;;;3.76;79.91;101447.25;4868421;29;11718;-70
2021/03/21 05:24:37;;;;;;;;;40.25;40.25;;;;;3.77;79.86;101439.88;4870041;29;12520;-71
2021/03/21 05:27:40;;;;;;;;;38.50;37.25;;;;;3.79;79.97;101437.66;4879005;29;11742;-70
2021/03/21 05:30:38;;;;;;;;;28.75;28.00;;;;;3.83;78.96;101439.63;4876733;29;11735;-71
2021/03/21 05:33:34;;;;;;;;;36.25;35.50;;;;;3.72;78.93;101442.56;4877537;29;11734;-71
2021/03/21 05:36:53;;;;;;;;;36.00;35.00;;;;;3.81;78.74;101438.22;4870359;29;11742;-71
2021/03/21 05:40:01;;;;;;;;;35.00;35.00;;;;;4.04;79.10;101434.19;4876112;29;11734;-72
2021/03/21 05:44:02;;;;;;;;;37.25;35.25;;;;;4.25;77.86;101427.69;4869649;29;11742;-71
2021/03/21 05:47:12;;;;;;;;;27.00;27.00;;;;;4.40;77.45;101424.97;4799260;29;11831;-70
2021/03/21 05:50:35;;;;;;;;;43.00;41.00;;;;;4.50;77.97;101424.16;4870115;29;11726;-71
2021/03/21 05:53:39;;;;;;;;;42.50;40.75;;;;;4.70;77.51;101423.38;4865053;29;11757;-71
2021/03/21 05:56:54;;;;;;;;;34.50;34.50;;;;;4.73;76.03;101429.09;4877132;29;11729;-72
2021/03/21 06:00:28;;;;;;;;;36.25;35.00;;;;;4.76;74.99;101421.47;4867528;29;11751;-72
2021/03/21 06:03:26;;;;;;;;;36.00;34.00;;;;;4.79;74.58;101424.47;4861458;29;11763;-71
2021/03/21 06:06:31;;;;;;;;;30.50;30.50;;;;;4.95;73.85;101422.53;4863719;29;12574;-71
2021/03/21 06:09:49;;;;;;;;;39.25;37.00;;;;;4.96;74.69;101419.50;4871799;29;11721;-72
2021/03/21 06:12:32;;;;;;;;;72.67;58.33;;;;;5.24;74.13;101422.78;4854082;29;11797;-70
2021/03/21 06:15:31;;;;;;;;;68.67;57.00;;;;;5.27;73.90;101420.28;4872030;29;11734;-74
2021/03/21 06:17:58;;;;;;;;;46.00;42.00;;;;;5.23;73.38;101424.69;4862202;29;8968;-73
2021/03/21 06:21:31;;;;;;;;;21.25;21.25;;;;;5.24;73.77;101420.84;4872803;29;11843;-73
2021/03/21 06:24:50;;;;;;;;;51.25;46.00;;;;;5.43;72.90;101423.81;4878613;29;11705;-74
2021/03/21 06:28:07;;;;;;;;;50.00;44.00;;;;;5.54;72.02;101422.69;4878076;29;11726;-74
2021/03/21 06:31:27;;;;;;;;;33.75;32.50;;;;;5.48;71.33;101420.25;4870392;29;12517;-74
2021/03/21 06:34:41;;;;;;;;;36.25;36.25;;;;;5.90;71.46;101416.22;4874083;29;11742;-74
2021/03/21 06:37:56;;;;;;;;;38.50;38.25;;;;;6.04;70.46;101415.38;4875883;29;11763;-74
2021/03/21 06:41:27;;;;;;;;;35.00;35.00;;;;;6.02;69.41;101411.28;4876969;29;11711;-73
2021/03/21 06:44:50;;;;;;;;;20.50;20.50;;;;;6.05;69.66;101408.75;4876608;29;12399;-73
2021/03/21 06:48:06;;;;;;;;;40.75;39.50;;;;;6.01;69.31;101417.88;4876138;29;11711;-73
2021/03/21 06:51:33;;;;;;;;;33.50;33.50;;;;;6.32;68.89;101410.28;4878975;29;11681;-74
2021/03/21 06:54:34;;;;;;;;;40.50;39.00;;;;;6.33;67.59;101409.97;4880850;29;11732;-73
2021/03/21 06:57:42;;;;;;;;;42.50;39.75;;;;;6.72;67.34;101405.56;4872715;29;11726;-73
2021/03/21 07:01:10;;;;;;;;;44.50;42.00;;;;;7.02;66.80;101402.56;4881330;29;11698;-73
2021/03/21 07:04:16;;;;;;;;;33.25;32.00;;;;;6.83;67.21;101394.22;4880543;29;11695;-74
2021/03/21 07:06:50;;;;;;;;;42.50;38.75;;;;;7.05;66.44;101404.72;4880571;29;11709;-72
2021/03/21 07:09:45;;;;;;;;;40.75;39.75;;;;;7.16;64.81;101398.03;4877531;29;11796;-72
2021/03/21 07:12:32;;;;;;;;;35.75;35.25;;;;;7.41;64.86;101399.66;4880264;29;11762;-73
2021/03/21 07:15:23;;;;;;;;;38.75;37.25;;;;;6.96;65.51;101388.03;4869820;29;11736;-72
2021/03/21 07:18:20;;;;;;;;;37.00;33.75;;;;;6.82;64.74;101389.81;4880163;29;11825;-73
2021/03/21 07:21:20;;;;;;;;;36.00;36.00;;;;;6.71;66.83;101388.25;4869587;29;11765;-73
2021/03/21 07:24:45;;;;;;;;;38.75;37.50;;;;;6.80;66.36;101386.53;4879764;29;11771;-73
2021/03/21 07:27:15;;;;;;;;;48.25;44.00;;;;;6.90;66.82;101389.22;4879549;29;11807;-72
2021/03/21 07:29:47;;;;;;;;;44.00;38.75;;;;;7.21;65.92;101381.47;4867024;29;11833;-73
2021/03/21 07:33:00;;;;;;;;;27.75;26.25;;;;;7.01;64.63;101383.59;4880129;29;11743;-73
2021/03/21 07:36:17;;;;;;;;;35.00;34.00;;;;;6.86;64.11;101387.31;4880429;29;11807;-72
2021/03/21 07:39:32;;;;;;;;;29.50;29.50;;;;;6.79;64.18;101384.06;4867729;29;11822;-73
2021/03/21 07:42:46;;;;;;;;;39.25;36.50;;;;;6.87;65.72;101383.44;4881501;29;11735;-73
2021/03/21 07:46:19;;;;;;;;;31.75;31.75;;;;;7.34;64.81;101390.94;4880128;29;11784;-73
2021/03/21 07:48:47;;;;;;;;;35.00;35.00;;;;;7.59;63.29;101387.09;4880317;29;11733;-73
2021/03/21 07:52:13;;;;;;;;;31.75;31.75;;;;;7.29;63.37;101382.75;4867648;29;11740;-76
2021/03/21 07:55:47;;;;;;;;;36.50;32.50;;;;;7.50;63.44;101384.16;4870390;29;11727;-79
2021/03/21 07:59:13;;;;;;;;;31.25;31.25;;;;;7.40;61.09;101381.53;4864420;29;11849;-78
2021/03/21 08:02:23;;;;;;;;;35.00;35.00;;;;;7.58;61.19;101385.44;4883675;29;11702;-79
2021/03/21 08:05:22;;;;;;;;;37.00;37.00;;;;;7.65;62.30;101383.16;4867263;29;11755;-77
2021/03/21 08:08:23;;;;;;;;;29.25;28.25;;;;;7.73;62.07;101378.91;4868040;29;11731;-78
2021/03/21 08:11:08;;;;;;;;;30.50;30.50;;;;;7.60;61.41;101376.91;4879214;29;11757;-78
2021/03/21 08:13:54;;;;;;;;;35.75;35.25;;;;;7.80;62.28;101371.94;4861565;29;11724;-78
2021/03/21 08:16:36;;;;;;;;;46.25;41.75;;;;;8.22;60.81;101369.44;4881501;29;11844;-78
2021/03/21 08:19:25;;;;;;;;;36.25;35.00;;;;;8.47;58.46;101369.06;4882979;29;11774;-76
2021/03/21 08:22:13;;;;;;;;;37.75;35.75;;;;;8.83;60.04;101371.25;4869619;29;11781;-78
2021/03/21 08:24:47;;;;;;;;;40.75;38.50;;;;;9.08;61.36;101370.78;4866916;29;11719;-77
2021/03/21 08:27:43;;;;;;;;;30.50;30.50;;;;;9.09;56.38;101369.66;4869771;29;11718;-78
2021/03/21 08:30:59;;;;;;;;;24.00;24.00;;;;;8.73;55.05;101366.69;4869104;29;11652;-78
2021/03/21 08:34:17;;;;;;;;;30.00;29.75;;;;;9.15;55.23;101362.09;4861678;29;11667;-78
2021/03/21 08:37:39;;;;;;;;;31.00;31.00;;;;;8.91;56.99;101360.34;4875308;29;11647;-79
2021/03/21 08:40:36;;;;;;;;;30.00;30.00;;;;;9.26;56.65;101362.72;4882269;29;11658;-78
2021/03/21 08:43:44;;;;;;;;;34.50;33.25;;;;;9.43;54.65;101351.88;4869780;29;11681;-76
2021/03/21 08:46:34;;;;;;;;;38.25;37.50;;;;;9.87;56.05;101353.16;4881767;29;11869;-77
2021/03/21 08:49:24;;;;;;;;;31.00;30.75;;;;;9.93;55.62;101351.94;4883783;29;11689;-79
2021/03/21 08:51:53;;;;;;;;;28.50;28.50;;;;;9.81;56.35;101357.97;4865292;29;11651;-79
2021/03/21 08:54:51;;;;;;;;;27.25;27.25;;;;;9.77;55.34;101350.63;4879982;29;11686;-78
2021/03/21 08:57:36;;;;;;;;;28.75;28.75;;;;;9.72;55.41;101338.56;4867637;29;11686;-77
2021/03/21 09:00:34;;;;;;;;;23.50;23.50;;;;;10.21;54.19;101339.69;4872452;29;11663;-77
2021/03/21 09:03:32;;;;;;;;;24.50;23.50;;;;;10.28;52.60;101339.28;4868436;29;12408;-77
2021/03/21 09:06:32;;;;;;;;;28.75;27.75;;;;;10.41;49.96;101327.31;4859923;29;11647;-78
2021/03/21 09:09:34;;;;;;;;;25.75;25.75;;;;;9.99;50.99;101334.94;4879298;29;11403;-77
2021/03/21 09:12:24;;;;;;;;;30.00;29.50;;;;;9.62;53.45;101332.44;4878917;29;11381;-78
2021/03/21 09:15:41;;;;;;;;;24.50;24.50;;;;;9.42;52.25;101334.50;4877776;29;11759;-77
2021/03/21 09:18:41;;;;;;;;;29.50;29.50;;;;;9.19;53.12;101341.84;4792802;29;11559;-78
2021/03/21 09:21:45;;;;;;;;;27.25;27.25;;;;;8.69;53.50;101335.34;4850444;29;11644;-76
2021/03/21 09:24:41;;;;;;;;;12.50;12.50;;;;;8.04;53.06;101338.00;4876475;29;11748;-78
2021/03/21 09:27:41;;;;;;;;;22.25;22.25;;;;;7.63;56.52;101337.75;4873525;29;11598;-78
2021/03/21 09:30:22;;;;;;;;;42.00;36.75;;;;;7.64;59.25;101339.41;4878078;29;11648;-78
2021/03/21 09:33:37;;;;;;;;;19.25;19.00;;;;;7.63;60.90;101332.25;4863230;29;11722;-78
2021/03/21 09:36:45;;;;;;;;;19.75;19.75;;;;;7.70;58.68;101316.19;4867132;29;11809;-77
2021/03/21 09:40:04;;;;;;;;;24.50;24.50;;;;;7.59;59.06;101318.28;4873894;29;11687;-78
2021/03/21 09:43:02;;;;;;;;;23.50;21.75;;;;;7.63;57.43;101310.22;4852055;29;11721;-78
2021/03/21 09:46:07;;;;;;;;;12.50;12.50;;;;;7.59;58.21;101310.03;4874345;29;11768;-77
2021/03/21 09:49:14;;;;;;;;;15.75;15.75;;;;;7.59;55.82;101310.03;4866404;29;11748;-77
2021/03/21 09:52:45;;;;;;;;;17.25;17.25;;;;;7.85;54.92;101313.22;4874529;29;11712;-77
2021/03/21 09:55:46;;;;;;;;;14.25;14.25;;;;;7.67;53.46;101305.78;4859819;29;11754;-80
2021/03/21 09:58:50;;;;;;;;;14.00;14.00;;;;;8.36;54.37;101306.97;4863434;29;11722;-77
2021/03/21 10:01:51;;;;;;;;;16.25;16.25;;;;;8.28;52.94;101310.34;4861222;29;11723;-75
2021/03/21 10:04:57;;;;;;;;;16.00;15.25;;;;;8.07;53.70;101305.19;4862116;29;11669;-78
2021/03/21 10:07:54;;;;;;;;;19.50;18.00;;;;;7.94;55.85;101316.94;4869886;29;11674;-78
2021/03/21 10:11:09;;;;;;;;;13.75;13.75;;;;;7.74;55.78;101320.81;4861735;29;12520;-77
2021/03/21 10:14:18;;;;;;;;;8.00;8.00;;;;;7.68;52.99;101313.75;4861401;29;11896;-78
2021/03/21 10:17:20;;;;;;;;;10.50;10.50;;;;;7.43;55.80;101306.63;4875434;29;11634;-77
2021/03/21 10:20:17;;;;;;;;;11.50;10.75;;;;;7.42;52.88;101290.41;4877203;29;11668;-79
2021/03/21 10:23:13;;;;;;;;;14.75;14.75;;;;;7.22;51.85;101303.31;4876447;29;11628;-79
2021/03/21 10:26:09;;;;;;;;;13.75;13.00;;;;;7.24;52.31;101297.50;4884955;29;11839;-79
2021/03/21 10:29:16;;;;;;;;;11.25;11.25;;;;;7.01;51.03;101287.34;4863348;29;11734;-79
2021/03/21 10:32:19;;;;;;;;;13.50;13.50;;;;;6.99;52.02;101284.06;4880790;29;11681;-78
2021/03/21 10:35:21;;;;;;;;;11.00;11.00;;;;;7.10;52.16;101272.66;4872751;29;11711;-77
2021/03/21 10:38:47;;;;;;;;;11.25;11.25;;;;;7.22;53.16;101272.25;4868291;29;11702;-78
2021/03/21 10:41:58;;;;;;;;;14.25;14.25;;;;;7.40;51.90;101276.94;4881634;29;11708;-80
2021/03/21 10:44:41;;;;;;;;;12.50;12.50;;;;;7.50;51.43;101264.97;4858551;29;12166;-79
2021/03/21 10:47:39;;;;;;;;;17.00;15.50;;;;;7.62;51.76;101265.38;4881643;29;11815;-79
2021/03/21 10:50:56;;;;;;;;;15.00;15.00;;;;;7.67;51.24;101268.06;4868179;29;11685;-79
2021/03/21 10:53:54;;;;;;;;;11.75;11.75;;;;;7.78;51.10;101266.78;4866799;29;11698;-78
2021/03/21 10:57:27;;;;;;;;;11.25;11.25;;;;;7.74;48.93;101271.25;4864456;29;11701;-78
2021/03/21 11:00:19;;;;;;;;;16.25;16.25;;;;;7.74;50.37;101262.16;4861166;29;12472;-78
2021/03/21 11:02:59;;;;;;;;;22.25;21.75;;;;;7.83;49.62;101254.06;4868474;29;11896;-78
2021/03/21 11:05:39;;;;;;;;;15.50;15.50;;;;;7.80;50.34;101255.47;4865749;29;11773;-74
2021/03/21 11:08:29;;;;;;;;;16.00;16.00;;;;;7.99;51.79;101241.69;4865124;29;12569;-73
2021/03/21 11:11:42;;;;;;;;;18.25;18.25;;;;;8.07;50.90;101238.25;4883711;29;11709;-73
2021/03/21 11:14:34;;;;;;;;;10.00;10.00;;;;;8.32;47.47;101251.59;4882373;29;11697;-73
2021/03/21 11:17:14;;;;;;;;;8.00;8.00;;;;;8.39;48.07;101245.72;4879709;29;11591;-73
2021/03/21 11:19:50;;;;;;;;;7.75;7.75;;;;;8.52;45.08;101238.63;4880747;29;12361;-73
2021/03/21 11:22:35;;;;;;;;;10.75;10.75;;;;;8.55;45.44;101235.22;4881438;29;11653;-73
2021/03/21 11:25:41;;;;;;;;;8.50;8.50;;;;;8.80;45.92;101226.47;4880065;29;12500;-73
2021/03/21 11:28:25;;;;;;;;;7.75;7.75;;;;;9.01;46.78;101226.88;4880515;29;11601;-73
2021/03/21 11:31:36;;;;;;;;;8.50;8.50;;;;;8.91;45.91;101224.34;4877460;29;11595;-73
2021/03/21 11:34:36;;;;;;;;;7.25;7.25;;;;;8.74;45.33;101229.63;4882548;29;11600;-74
2021/03/21 11:37:26;;;;;;;;;10.25;10.25;;;;;9.07;44.15;101219.31;4868774;29;11652;-74
2021/03/21 11:40:16;;;;;;;;;7.25;7.25;;;;;9.18;45.14;101217.97;4872199;29;11646;-66
2021/03/21 11:43:08;;;;;;;;;7.00;7.00;;;;;9.21;44.49;101217.38;4879618;29;11582;-69
2021/03/21 11:46:28;;;;;;;;;10.50;10.50;;;;;9.25;44.07;101217.56;4882713;29;11706;-73
2021/03/21 11:49:25;;;;;;;;;6.75;6.75;;;;;9.36;44.71;101207.94;4881740;29;11548;-74
2021/03/21 11:52:22;;;;;;;;;10.00;8.50;;;;;9.24;44.34;101208.47;4879631;29;11278;-75
2021/03/21 11:55:21;;;;;;;;;8.00;8.00;;;;;8.95;45.58;101213.50;4879592;29;11645;-73
2021/03/21 11:58:38;;;;;;;;;9.75;8.25;;;;;8.80;46.51;101206.34;4878499;29;11568;-73
2021/03/21 12:01:48;;;;;;;;;11.50;11.50;;;;;8.54;47.44;101212.38;4880401;29;11682;-75
2021/03/21 12:04:44;;;;;;;;;11.50;11.50;;;;;8.27;47.10;101209.50;4879572;29;12392;-74
2021/03/21 12:07:28;;;;;;;;;10.00;10.00;;;;;8.27;47.90;101204.81;4869638;29;11597;-74
2021/03/21 12:10:31;;;;;;;;;10.25;10.25;;;;;8.12;45.43;101194.06;4878142;29;11652;-75
2021/03/21 12:13:30;;;;;;;;;10.00;10.00;;;;;8.48;47.69;101188.75;4881158;29;11666;-72
2021/03/21 12:16:41;;;;;;;;;8.00;7.75;;;;;8.33;46.10;101181.56;4872688;29;11654;-74
2021/03/21 12:19:38;;;;;;;;;7.50;7.50;;;;;8.40;46.10;101180.38;4879309;29;12332;-74
2021/03/21 12:22:37;;;;;;;;;12.50;12.50;;;;;8.46;45.01;101177.22;4879468;29;11575;-74
2021/03/21 12:25:36;;;;;;;;;9.00;9.00;;;;;8.59;44.40;101176.44;4877274;29;11615;-74
2021/03/21 12:28:36;;;;;;;;;10.75;10.75;;;;;8.77;45.34;101174.69;4880466;29;11683;-73
2021/03/21 12:31:14;;;;;;;;;11.50;11.50;;;;;8.82;43.48;101176.53;4878458;29;11626;-74
2021/03/21 12:33:56;;;;;;;;;11.00;11.00;;;;;9.23;43.84;101170.16;4868906;29;11675;-74
2021/03/21 12:37:10;;;;;;;;;10.00;10.00;;;;;9.63;41.94;101169.19;4879385;29;11629;-73
2021/03/21 12:40:13;;;;;;;;;9.25;9.25;;;;;10.08;42.36;101160.09;4877686;29;11393;-74
2021/03/21 12:43:23;;;;;;;;;8.50;8.00;;;;;10.49;42.60;101163.41;4878805;29;11152;-74
2021/03/21 12:46:20;;;;;;;;;11.75;11.75;;;;;10.16;41.04;101159.31;4881158;29;11005;-73
2021/03/21 12:49:37;;;;;;;;;9.00;9.00;;;;;10.22;41.58;101158.06;4881258;29;11062;-73
2021/03/21 12:52:32;;;;;;;;;8.75;8.75;;;;;9.96;42.09;101155.13;4877258;29;10959;-73
2021/03/21 12:55:03;;;;;;;;;12.00;12.00;;;;;10.00;41.88;101156.13;4880299;29;10958;-76
2021/03/21 12:58:02;;;;;;;;;13.00;13.00;;;;;10.00;42.10;101156.94;4878996;29;11047;-74
2021/03/21 13:00:58;;;;;;;;;7.00;7.00;;;;;9.69;41.62;101156.09;4879106;29;11034;-73
2021/03/21 13:03:35;;;;;;;;;14.00;14.00;;;;;9.74;42.88;101148.50;4881858;29;11007;-73
2021/03/21 13:06:30;;;;;;;;;4.00;4.00;;;;;9.35;43.58;101149.13;4876215;29;11289;-73
2021/03/21 13:09:26;;;;;;;;;11.00;11.00;;;;;9.46;43.94;101144.22;4879462;29;11141;-73
2021/03/21 13:11:55;;;;;;;;;8.50;8.50;;;;;9.23;43.84;101140.59;4877646;29;11140;-72
2021/03/21 13:14:52;;;;;;;;;9.00;9.00;;;;;9.09;43.77;101143.38;4877967;29;11089;-74
2021/03/21 13:17:20;;;;;;;;;9.00;9.00;;;;;9.26;43.65;101136.38;4879188;29;11311;-74
2021/03/21 13:19:49;;;;;;;;;9.00;9.00;;;;;9.28;44.06;101131.38;4879112;29;11252;-73
2021/03/21 13:22:16;;;;;;;;;10.50;10.50;;;;;9.22;43.98;101132.63;4878498;29;12306;-73
2021/03/21 13:24:45;;;;;;;;;12.50;12.00;;;;;9.41;43.87;101128.56;4876352;29;11255;-73
2021/03/21 13:27:15;;;;;;;;;10.25;10.25;;;;;9.47;43.03;101123.75;4866040;29;11103;-73
2021/03/21 13:29:43;;;;;;;;;11.00;11.00;;;;;9.40;41.22;101126.94;4863611;29;11236;-73
2021/03/21 13:32:38;;;;;;;;;7.00;7.00;;;;;8.86;42.00;101120.44;4878342;29;11617;-73
2021/03/21 13:35:35;;;;;;;;;8.00;8.00;;;;;8.94;40.99;101112.56;4880745;29;11651;-73
2021/03/21 13:38:23;;;;;;;;;7.50;7.50;;;;;8.98;42.00;101124.63;4879403;29;11250;-71
2021/03/21 13:41:03;;;;;;;;;8.75;8.00;;;;;8.87;40.32;101127.59;4879946;29;12165;-72
2021/03/21 13:43:59;;;;;;;;;10.50;10.50;;;;;9.12;39.17;101111.59;4879976;29;11277;-73
2021/03/21 13:46:36;;;;;;;;;9.50;9.50;;;;;9.23;39.52;101110.25;4864104;29;11699;-73
2021/03/21 13:49:19;;;;;;;;;11.25;11.25;;;;;9.39;39.43;101106.00;4879893;29;12434;-72
2021/03/21 13:52:15;;;;;;;;;14.00;14.00;;;;;9.06;40.31;101097.13;4860773;29;11743;-74